createdAt,value
2023-04-15T00:00:29.095Z,4.70
2023-04-15T00:03:32.068Z,3.87
2023-04-15T00:06:35.276Z,4.80
2023-04-15T00:09:38.097Z,4.97
2023-04-15T00:12:41.221Z,4.18
2023-04-15T00:15:43.909Z,4.80
2023-04-15T00:18:46.386Z,4.50
2023-04-15T00:21:49.072Z,4.50
2023-04-15T00:24:52.569Z,4.33
2023-04-15T00:27:55.353Z,4.40
2023-04-15T00:30:58.757Z,4.30
2023-04-15T00:34:02.559Z,4.45
2023-04-15T00:37:04.995Z,4.50
2023-04-15T00:40:12.951Z,4.70
2023-04-15T00:43:16.532Z,4.22
2023-04-15T00:46:21.489Z,4.00
2023-04-15T00:49:24.901Z,4.45
2023-04-15T00:52:27.637Z,4.13
2023-04-15T00:55:30.185Z,4.00
2023-04-15T00:58:33.186Z,4.20
2023-04-15T01:01:39.058Z,3.75
2023-04-15T01:04:42.330Z,3.83
2023-04-15T01:07:44.668Z,4.30
2023-04-15T01:10:47.792Z,4.10
2023-04-15T01:13:51.239Z,3.90
2023-04-15T01:16:53.888Z,4.10
2023-04-15T01:20:00.135Z,4.10
2023-04-15T01:23:06.407Z,4.67
2023-04-15T01:26:09.575Z,4.37
2023-04-15T01:29:13.290Z,4.10
2023-04-15T01:32:15.957Z,4.68
2023-04-15T01:35:20.152Z,4.28
2023-04-15T01:38:22.587Z,5.10
2023-04-15T01:41:29.119Z,4.60
2023-04-15T01:44:31.665Z,5.15
2023-04-15T01:47:34.506Z,5.12
2023-04-15T01:50:38.267Z,5.10
2023-04-15T01:53:41.187Z,4.97
2023-04-15T01:56:44.290Z,5.47
2023-04-15T01:59:47.484Z,5.03
2023-04-15T02:02:50.779Z,4.62
2023-04-15T02:05:53.444Z,4.93
2023-04-15T02:08:56.620Z,5.23
2023-04-15T02:11:59.559Z,5.53
2023-04-15T02:15:02.553Z,5.20
2023-04-15T02:18:05.432Z,5.32
2023-04-15T02:21:08.307Z,4.93
2023-04-15T02:24:12.843Z,5.40
2023-04-15T02:27:22.988Z,4.97
2023-04-15T02:30:27.288Z,5.20
2023-04-15T02:33:29.633Z,4.78
2023-04-15T02:36:32.272Z,4.70
2023-04-15T02:39:34.659Z,5.63
2023-04-15T02:42:37.811Z,5.60
2023-04-15T02:45:41.405Z,6.55
2023-04-15T02:48:44.319Z,5.80
2023-04-15T02:51:50.033Z,6.50
2023-04-15T02:54:57.819Z,6.27
2023-04-15T02:58:01.237Z,6.40
2023-04-15T03:01:04.171Z,5.60
2023-04-15T03:04:09.045Z,6.18
2023-04-15T03:07:11.888Z,6.20
2023-04-15T03:10:14.549Z,6.03
2023-04-15T03:13:17.244Z,6.43
2023-04-15T03:16:20.060Z,6.55
2023-04-15T03:19:22.960Z,5.75
2023-04-15T03:22:26.664Z,6.22
2023-04-15T03:25:29.585Z,6.50
2023-04-15T03:28:32.861Z,6.50
2023-04-15T03:31:36.054Z,6.30
2023-04-15T03:34:38.362Z,6.03
2023-04-15T03:37:41.332Z,6.03
2023-04-15T03:40:44.227Z,5.90
2023-04-15T03:43:46.952Z,6.37
2023-04-15T03:46:49.649Z,6.28
2023-04-15T03:49:52.569Z,6.47
2023-04-15T03:52:55.028Z,6.05
2023-04-15T03:55:57.670Z,6.70
2023-04-15T03:59:00.422Z,6.57
2023-04-15T04:02:03.381Z,7.32
2023-04-15T04:05:06.487Z,7.25
2023-04-15T04:08:08.913Z,7.32
2023-04-15T04:11:11.880Z,6.53
2023-04-15T04:14:14.330Z,6.57
2023-04-15T04:17:17.083Z,7.15
2023-04-15T04:20:19.471Z,6.55
2023-04-15T04:23:22.092Z,7.12
2023-04-15T04:26:24.442Z,7.17
2023-04-15T04:29:27.125Z,7.67
2023-04-15T04:32:29.673Z,7.30
2023-04-15T04:35:34.948Z,7.43
2023-04-15T04:38:37.461Z,8.15
2023-04-15T04:41:40.246Z,7.57
2023-04-15T04:44:42.755Z,7.47
2023-04-15T04:47:45.568Z,7.70
2023-04-15T04:50:48.188Z,7.82
2023-04-15T04:53:50.975Z,7.10
2023-04-15T04:56:53.477Z,6.80
2023-04-15T04:59:56.262Z,6.80
2023-04-15T05:02:59.223Z,7.25
2023-04-15T05:06:06.189Z,7.50
2023-04-15T05:09:08.601Z,6.78
2023-04-15T05:12:15.056Z,7.23
2023-04-15T05:15:17.847Z,7.93
2023-04-15T05:18:20.718Z,8.48
2023-04-15T05:21:23.601Z,6.68
2023-04-15T05:24:26.606Z,6.72
2023-04-15T05:27:29.132Z,6.17
2023-04-15T05:30:32.270Z,6.87
2023-04-15T05:33:34.949Z,6.25
2023-04-15T05:36:37.805Z,6.35
2023-04-15T05:39:40.376Z,6.30
2023-04-15T05:42:43.118Z,5.60
2023-04-15T05:45:45.969Z,6.47
2023-04-15T05:48:48.647Z,6.07
2023-04-15T05:51:51.575Z,6.20
2023-04-15T05:54:54.477Z,5.53
2023-04-15T05:57:57.426Z,4.83
2023-04-15T06:01:00.520Z,5.40
2023-04-15T06:04:03.273Z,4.93
2023-04-15T06:07:06.091Z,4.22
2023-04-15T06:10:09.273Z,4.68
2023-04-15T06:13:11.709Z,4.90
2023-04-15T06:16:14.529Z,4.10
2023-04-15T06:19:17.285Z,4.00
2023-04-15T06:22:20.068Z,3.87
2023-04-15T06:25:22.656Z,3.60
2023-04-15T06:28:25.595Z,3.63
2023-04-15T06:31:28.004Z,2.83
2023-04-15T06:34:30.797Z,2.62
2023-04-15T06:37:33.177Z,2.67
2023-04-15T06:40:36.115Z,2.53
2023-04-15T06:43:39.383Z,2.53
2023-04-15T06:46:42.252Z,2.47
2023-04-15T06:49:45.002Z,2.45
2023-04-15T06:52:47.741Z,2.28
2023-04-15T06:55:50.034Z,1.62
2023-04-15T06:58:52.913Z,1.90
2023-04-15T07:01:55.741Z,1.77
2023-04-15T07:04:58.511Z,2.20
2023-04-15T07:08:01.253Z,2.10
2023-04-15T07:11:04.354Z,2.28
2023-04-15T07:14:06.943Z,1.97
2023-04-15T07:17:09.994Z,2.13
2023-04-15T07:20:13.037Z,2.00
2023-04-15T07:23:16.384Z,1.58
2023-04-15T07:26:18.794Z,1.70
2023-04-15T07:29:21.702Z,1.40
2023-04-15T07:32:24.202Z,1.70
2023-04-15T07:35:27.647Z,1.25
2023-04-15T07:38:30.166Z,1.33
2023-04-15T07:41:33.080Z,1.50
2023-04-15T07:44:35.752Z,1.43
2023-04-15T07:47:38.453Z,1.93
2023-04-15T07:50:40.840Z,1.95
2023-04-15T07:53:44.768Z,2.62
2023-04-15T07:56:47.282Z,2.30
2023-04-15T07:59:50.111Z,2.30
2023-04-15T08:02:54.152Z,2.40
2023-04-15T08:05:57.557Z,2.33
2023-04-15T08:09:00.546Z,2.40
2023-04-15T08:12:03.919Z,2.05
2023-04-15T08:15:08.342Z,2.08
2023-04-15T08:18:11.339Z,2.03
2023-04-15T08:21:14.084Z,2.95
2023-04-15T08:24:16.805Z,2.22
2023-04-15T08:27:20.069Z,2.30
2023-04-15T08:30:22.830Z,2.42
2023-04-15T08:33:25.978Z,2.53
2023-04-15T08:36:28.669Z,2.60
2023-04-15T08:39:31.187Z,2.65
2023-04-15T08:42:42.901Z,2.30
2023-04-15T08:45:46.935Z,2.30
2023-04-15T08:48:50.500Z,2.20
2023-04-15T08:51:53.311Z,2.20
2023-04-15T08:55:01.091Z,2.50
2023-04-15T08:58:04.788Z,2.37
2023-04-15T09:01:07.958Z,2.10
2023-04-15T09:04:12.597Z,2.97
2023-04-15T09:07:15.480Z,2.75
2023-04-15T09:10:17.994Z,2.90
2023-04-15T09:13:20.638Z,2.60
2023-04-15T09:16:23.159Z,2.67
2023-04-15T09:19:26.321Z,2.47
2023-04-15T09:22:33.047Z,2.25
2023-04-15T09:25:35.902Z,1.92
2023-04-15T09:28:43.613Z,2.03
2023-04-15T09:31:46.649Z,1.98
2023-04-15T09:34:49.164Z,1.70
2023-04-15T09:37:52.783Z,1.73
2023-04-15T09:40:55.449Z,1.50
2023-04-15T09:43:58.161Z,1.58
2023-04-15T09:47:00.945Z,1.60
2023-04-15T09:50:03.997Z,1.00
2023-04-15T09:53:06.500Z,0.98
2023-04-15T09:56:10.616Z,1.40
2023-04-15T09:59:13.106Z,1.20
2023-04-15T10:02:16.553Z,1.40
2023-04-15T10:05:19.420Z,1.40
2023-04-15T10:08:25.028Z,1.15
2023-04-15T10:11:30.386Z,1.17
2023-04-15T10:14:38.655Z,1.20
2023-04-15T10:17:45.106Z,1.58
2023-04-15T10:20:49.160Z,1.10
2023-04-15T10:23:52.361Z,1.12
2023-04-15T10:26:55.607Z,1.35
2023-04-15T10:30:03.865Z,1.08
2023-04-15T10:33:08.858Z,1.10
2023-04-15T10:36:12.639Z,0.93
2023-04-15T10:39:34.254Z,1.12
2023-04-15T10:42:37.078Z,1.02
2023-04-15T10:45:39.492Z,0.82
2023-04-15T10:48:48.816Z,1.10
2023-04-15T10:51:59.035Z,0.87
2023-04-15T10:55:07.806Z,0.95
2023-04-15T10:58:10.460Z,0.75
2023-04-15T11:01:13.590Z,0.80
2023-04-15T11:04:35.955Z,1.45
2023-04-15T11:07:40.207Z,1.10
2023-04-15T11:10:42.555Z,1.02
2023-04-15T11:13:52.648Z,0.77
2023-04-15T11:16:55.610Z,0.93
2023-04-15T11:19:58.672Z,1.00
2023-04-15T11:23:14.166Z,1.07
2023-04-15T11:26:18.477Z,0.88
2023-04-15T11:29:21.398Z,1.10
2023-04-15T11:32:24.078Z,1.00
2023-04-15T11:35:26.856Z,0.88
2023-04-15T11:38:29.556Z,1.00
2023-04-15T11:41:31.875Z,0.75
2023-04-15T11:44:34.582Z,1.15
2023-04-15T11:47:37.939Z,0.90
2023-04-15T11:50:41.360Z,1.00
2023-04-15T11:53:52.114Z,0.97
2023-04-15T11:56:55.005Z,0.80
2023-04-15T11:59:57.454Z,0.90
2023-04-15T12:03:18.014Z,0.70
2023-04-15T12:06:24.759Z,1.40
2023-04-15T12:09:27.195Z,0.70
2023-04-15T12:12:30.905Z,0.80
2023-04-15T12:15:33.302Z,0.75
2023-04-15T12:18:38.557Z,0.88
2023-04-15T12:21:44.196Z,0.80
2023-04-15T12:24:48.832Z,0.80
2023-04-15T12:27:53.526Z,0.80
2023-04-15T12:30:56.539Z,0.90
2023-04-15T12:34:01.166Z,1.00
2023-04-15T12:37:07.284Z,0.80
2023-04-15T12:40:10.172Z,1.13
2023-04-15T12:43:12.851Z,0.90
2023-04-15T12:46:15.882Z,0.90
2023-04-15T12:49:20.976Z,0.90
2023-04-15T12:52:24.497Z,0.90
2023-04-15T12:55:27.825Z,0.90
2023-04-15T12:58:30.372Z,0.65
2023-04-15T13:01:33.431Z,0.77
2023-04-15T13:04:36.137Z,0.68
2023-04-15T13:07:39.100Z,0.90
2023-04-15T13:10:42.580Z,0.93
2023-04-15T13:13:45.629Z,0.80
2023-04-15T13:16:48.033Z,0.60
2023-04-15T13:19:50.737Z,0.88
2023-04-15T13:22:54.266Z,0.80
2023-04-15T13:25:57.233Z,0.70
2023-04-15T13:29:00.730Z,0.80
2023-04-15T13:32:03.970Z,0.68
2023-04-15T13:35:06.839Z,0.80
2023-04-15T13:38:09.634Z,0.67
2023-04-15T13:41:11.988Z,0.50
2023-04-15T13:44:14.797Z,0.60
2023-04-15T13:47:19.256Z,0.73
2023-04-15T13:50:22.350Z,0.70
2023-04-15T13:53:27.438Z,0.50
2023-04-15T13:56:41.442Z,0.77
2023-04-15T13:59:44.232Z,0.52
2023-04-15T14:02:47.114Z,0.50
2023-04-15T14:05:55.853Z,0.70
2023-04-15T14:08:58.324Z,0.70
2023-04-15T14:12:01.610Z,0.50
2023-04-15T14:15:04.430Z,0.68
2023-04-15T14:18:08.011Z,1.00
2023-04-15T14:21:10.648Z,0.70
2023-04-15T14:24:13.532Z,0.97
2023-04-15T14:27:16.797Z,1.10
2023-04-15T14:30:19.593Z,0.90
2023-04-15T14:33:21.931Z,1.20
2023-04-15T14:36:24.607Z,0.70
2023-04-15T14:39:27.462Z,0.82
2023-04-15T14:42:30.413Z,0.90
2023-04-15T14:45:33.029Z,0.95
2023-04-15T14:48:35.920Z,0.90
2023-04-15T14:51:39.649Z,0.88
2023-04-15T14:54:43.928Z,0.80
2023-04-15T14:57:46.372Z,0.87
2023-04-15T15:00:49.089Z,1.20
2023-04-15T15:03:51.653Z,1.00
2023-04-15T15:06:55.036Z,1.00
2023-04-15T15:09:57.503Z,1.00
2023-04-15T15:13:00.336Z,1.20
2023-04-15T15:16:02.931Z,1.15
2023-04-15T15:19:05.958Z,0.93
2023-04-15T15:22:08.536Z,0.90
2023-04-15T15:25:11.281Z,1.12
2023-04-15T15:28:13.722Z,0.80
2023-04-15T15:31:16.774Z,0.93
2023-04-15T15:34:19.250Z,0.85
2023-04-15T15:37:22.057Z,0.98
2023-04-15T15:40:24.622Z,0.90
2023-04-15T15:43:27.477Z,0.70
2023-04-15T15:46:31.534Z,1.00
2023-04-15T15:49:34.571Z,0.88
2023-04-15T15:52:36.947Z,1.02
2023-04-15T15:55:39.579Z,0.83
2023-04-15T15:58:45.070Z,0.80
2023-04-15T16:01:48.415Z,0.65
2023-04-15T16:04:52.610Z,0.85
2023-04-15T16:07:55.029Z,0.90
2023-04-15T16:10:57.910Z,1.07
2023-04-15T16:14:00.286Z,1.30
2023-04-15T16:17:02.930Z,0.85
2023-04-15T16:20:06.290Z,0.75
2023-04-15T16:23:14.066Z,0.90
2023-04-15T16:26:17.078Z,0.90
2023-04-15T16:29:19.995Z,1.10
2023-04-15T16:32:22.692Z,0.90
2023-04-15T16:35:25.538Z,1.02
2023-04-15T16:38:28.061Z,1.00
2023-04-15T16:41:32.595Z,1.13
2023-04-15T16:44:36.339Z,1.13
2023-04-15T16:47:39.099Z,0.80
2023-04-15T16:50:41.666Z,0.88
2023-04-15T16:53:44.477Z,1.20
2023-04-15T16:56:46.937Z,0.90
2023-04-15T16:59:50.124Z,1.47
2023-04-15T17:02:52.852Z,1.33
2023-04-15T17:05:55.917Z,1.67
2023-04-15T17:08:58.268Z,1.20
2023-04-15T17:12:01.923Z,1.40
2023-04-15T17:15:04.611Z,1.50
2023-04-15T17:18:08.679Z,1.23
2023-04-15T17:21:11.167Z,1.58
2023-04-15T17:24:13.957Z,2.08
2023-04-15T17:30:19.404Z,1.37
2023-04-15T17:33:54.049Z,1.40
2023-04-15T17:36:45.472Z,1.30
2023-04-15T17:39:48.036Z,1.30
2023-04-15T17:42:50.806Z,1.30
2023-04-15T17:45:53.195Z,1.47
2023-04-15T17:48:56.129Z,1.50
2023-04-15T17:51:58.748Z,1.50
2023-04-15T17:55:01.478Z,1.40
2023-04-15T17:58:04.052Z,1.53
2023-04-15T18:01:06.822Z,1.40
2023-04-15T18:04:09.737Z,1.90
2023-04-15T18:07:12.400Z,2.00
2023-04-15T18:10:15.026Z,1.95
2023-04-15T18:13:17.443Z,2.50
2023-04-15T18:16:20.493Z,2.40
2023-04-15T18:19:24.625Z,2.62
2023-04-15T18:22:27.362Z,2.47
2023-04-15T18:25:30.185Z,2.35
2023-04-15T18:28:33.033Z,2.50
2023-04-15T18:31:35.479Z,2.40
2023-04-15T18:34:38.421Z,2.22
2023-04-15T18:37:40.781Z,2.95
2023-04-15T18:40:43.496Z,2.53
2023-04-15T18:43:46.005Z,2.60
2023-04-15T18:46:49.473Z,3.10
2023-04-15T18:49:52.113Z,2.50
2023-04-15T18:52:54.775Z,2.55
2023-04-15T18:55:58.106Z,2.95
2023-04-15T18:59:09.880Z,2.73
2023-04-15T19:02:23.529Z,2.80
2023-04-15T19:05:26.266Z,3.30
2023-04-15T19:08:29.729Z,3.67
2023-04-15T19:11:32.335Z,4.00
2023-04-15T19:14:34.911Z,3.83
2023-04-15T19:17:37.645Z,4.30
2023-04-15T19:20:40.393Z,4.62
2023-04-15T19:23:43.352Z,5.32
2023-04-15T19:26:49.074Z,7.25
2023-04-15T19:29:51.813Z,6.00
2023-04-15T19:32:54.281Z,6.73
2023-04-15T19:36:05.437Z,8.95
2023-04-15T19:39:08.247Z,7.95
2023-04-15T19:42:11.053Z,9.20
2023-04-15T19:45:13.776Z,8.63
2023-04-15T19:48:16.864Z,9.50
2023-04-15T19:51:19.595Z,10.10
2023-04-15T19:54:25.102Z,10.50
2023-04-15T19:57:27.606Z,10.65
2023-04-15T20:00:31.432Z,9.57
2023-04-15T20:03:34.177Z,9.37
2023-04-15T20:06:36.548Z,9.18
2023-04-15T20:09:39.367Z,9.05
2023-04-15T20:12:51.628Z,9.02
2023-04-15T20:15:55.776Z,7.90
2023-04-15T20:19:18.496Z,7.90
2023-04-15T20:22:21.287Z,8.30
2023-04-15T20:25:23.983Z,7.70
2023-04-15T20:28:27.881Z,7.55
2023-04-15T20:31:30.389Z,6.93
2023-04-15T20:34:33.126Z,7.30
2023-04-15T20:37:38.069Z,6.90
2023-04-15T20:40:41.871Z,7.15
2023-04-15T20:43:44.295Z,6.30
2023-04-15T20:46:47.023Z,6.87
2023-04-15T20:49:49.708Z,7.03
2023-04-15T20:52:52.539Z,7.10
2023-04-15T20:55:55.080Z,7.00
2023-04-15T20:58:58.032Z,7.37
2023-04-15T21:02:00.749Z,6.60
2023-04-15T21:05:03.602Z,6.97
2023-04-15T21:08:06.355Z,7.10
2023-04-15T21:11:09.032Z,7.93
2023-04-15T21:14:12.359Z,6.87
2023-04-15T21:17:15.163Z,6.93
2023-04-15T21:20:17.863Z,6.67
2023-04-15T21:23:20.848Z,6.90
2023-04-15T21:26:23.265Z,6.82
2023-04-15T21:29:26.046Z,7.05
2023-04-15T21:32:30.523Z,6.90
2023-04-15T21:35:33.321Z,7.17
2023-04-15T21:38:35.785Z,6.87
2023-04-15T21:41:38.615Z,6.78
2023-04-15T21:44:41.511Z,6.93
2023-04-15T21:48:01.034Z,6.90
2023-04-15T21:51:08.133Z,6.80
2023-04-15T21:54:11.100Z,7.35
2023-04-15T21:57:13.783Z,6.65
2023-04-15T22:00:16.658Z,6.75
2023-04-15T22:03:19.452Z,7.40
2023-04-15T22:06:22.019Z,6.80
2023-04-15T22:09:24.706Z,6.82
2023-04-15T22:12:27.237Z,6.93
2023-04-15T22:15:30.134Z,7.00
2023-04-15T22:18:32.579Z,6.93
2023-04-15T22:21:35.531Z,7.47
2023-04-15T22:24:40.670Z,7.30
2023-04-15T22:27:43.807Z,7.20
2023-04-15T22:30:46.200Z,6.57
2023-04-15T22:33:48.837Z,6.77
2023-04-15T22:36:52.078Z,6.70
2023-04-15T22:39:54.878Z,6.30
2023-04-15T22:42:57.354Z,6.75
2023-04-15T22:46:01.089Z,6.60
2023-04-15T22:49:06.212Z,7.30
2023-04-15T22:52:10.425Z,6.00
2023-04-15T22:55:14.924Z,6.57
2023-04-15T22:58:18.444Z,6.55
2023-04-15T23:01:21.263Z,6.07
2023-04-15T23:04:27.674Z,6.83
2023-04-15T23:07:30.444Z,6.47
2023-04-15T23:10:33.485Z,6.62
2023-04-15T23:13:36.335Z,7.10
2023-04-15T23:16:39.194Z,7.22
2023-04-15T23:19:41.531Z,6.63
2023-04-15T23:22:44.287Z,7.53
2023-04-15T23:25:46.844Z,7.62
2023-04-15T23:28:49.532Z,6.87
2023-04-15T23:31:54.371Z,7.12
2023-04-15T23:34:57.264Z,6.23
2023-04-15T23:37:59.857Z,6.70
2023-04-15T23:41:02.620Z,7.00
2023-04-15T23:44:05.365Z,6.62
2023-04-15T23:47:08.233Z,6.85
2023-04-15T23:50:10.966Z,6.90
2023-04-15T23:53:13.558Z,7.37
2023-04-15T23:56:15.969Z,7.12
2023-04-15T23:59:18.727Z,6.80
